Flight Track Log - Related Links

Times and Time Zones

All times are in EDT time to prevent confusion due to time zone crossing. See the N770NC flight status page for this flight to view local times or setup timezone preferences in your user account.

Time Position Orientation Groundspeed Altitude Reporting Facility
EDT Latitude Longitude Course Direction KTS MPH feet Rate Location/Type
Thu 01:54:34 PM 33.6500 -84.3833 349° North 187 215 2,000  Level Atlanta TRACON
Thu 01:55:34 PM 33.7000 -84.3500 29° Northeast 263 303 3,500 2,000 Climbing Atlanta TRACON
Thu 01:56:34 PM 33.7833 -84.3000 27° Northeast 279 321 6,000 2,300 Climbing Atlanta TRACON
Thu 01:57:00 PM 34.0839 -84.5335 349° North  Level FlightAware Approximate
Thu 01:57:34 PM 33.8500 -84.3333 337° Northwest 284 327 8,100  Level Atlanta TRACON
Thu 01:58:00 PM 34.1897 -84.5637 347° North  Level FlightAware Approximate
Thu 01:59:00 PM 34.3016 -84.5897 349° North  Level FlightAware Approximate
Thu 01:59:00 PM 33.9461 -84.4144 325° Northwest 291 335 11,200  Level Atlanta Center
Thu 02:00:00 PM 34.0211 -84.4622 332° Northwest 304 350 12,800 1,300 Climbing Atlanta Center
Thu 02:01:00 PM 34.1042 -84.5206 330° Northwest 329 379 13,800 1,000 Climbing Atlanta Center
Thu 02:02:00 PM 34.2022 -84.5686 338° Northwest 360 414 14,800 1,050 Climbing Atlanta Center
Thu 02:03:00 PM 34.3128 -84.5894 351° North 390 449 15,900 950 Climbing Atlanta Center
Thu 02:04:00 PM 34.4192 -84.5978 356° North 408 470 16,700 1,050 Climbing Atlanta Center
Thu 02:05:00 PM 34.5400 -84.6111 355° North 426 490 18,000 1,150 Climbing Atlanta Center
Thu 02:06:00 PM 34.6589 -84.6397 349° North 426 490 19,000 1,050 Climbing Atlanta Center
Thu 02:07:00 PM 34.7714 -84.6911 339° North 426 490 20,100 1,100 Climbing Atlanta Center
Thu 02:08:00 PM 34.8922 -84.7328 344° North 439 505 21,200 1,150 Climbing Atlanta Center
Thu 02:09:00 PM 35.0172 -84.7667 347° North 445 512 22,400 900 Climbing Atlanta Center
Thu 02:10:00 PM 35.1422 -84.7931 350° North 451 519 23,000 400 Climbing Atlanta Center
Thu 02:11:00 PM 35.2778 -84.8097 354° North 462 532 23,200 500 Climbing Atlanta Center
Thu 02:12:00 PM 35.4156 -84.8008 North 474 545 24,000 750 Climbing Atlanta Center
Thu 02:13:00 PM 35.5533 -84.7969 North 486 559 24,700 800 Climbing Atlanta Center
Thu 02:14:00 PM 35.6889 -84.8058 357° North 486 559 25,600 1,350 Climbing Atlanta Center
Thu 02:15:00 PM 35.8347 -84.8200 355° North 486 559 27,400 1,714 Climbing Atlanta Center
Thu 02:15:52 PM 35.9225 -84.8819 330° Northwest 458 527 28,800 1,053 Climbing Indianapolis Center
Thu 02:16:54 PM 36.0419 -84.9169 347° North 429 494 29,400 585 Climbing Indianapolis Center
Thu 02:17:55 PM 36.1581 -84.9419 350° North 424 488 30,000 293 Climbing Indianapolis Center
Thu 02:18:57 PM 36.2778 -84.9625 352° North 431 496 30,000 -532 Level Indianapolis Center
Thu 02:19:59 PM 36.3989 -84.9822 353° North 437 503 28,900 -1,854 Descending Indianapolis Center
Thu 02:21:00 PM 36.5400 -85.0197 348° North 431 496 26,200 -1,415 Descending Indianapolis Center
Thu 02:22:02 PM 36.6600 -85.0628 344° North 445 512 26,000 -97 Descending Indianapolis Center
Thu 02:23:04 PM 36.7769 -85.1192 339° North 451 519 26,000  Level Indianapolis Center
Thu 02:24:05 PM 36.8942 -85.1739 340° North 448 516 26,000  Level Indianapolis Center
Thu 02:25:07 PM 37.0133 -85.2233 342° North 449 517 26,000  Level Indianapolis Center
Thu 02:26:09 PM 37.1375 -85.2619 346° North 456 525 26,000  Level Indianapolis Center
Thu 02:27:11 PM 37.2611 -85.3056 344° North 458 527 26,000  Level Indianapolis Center
Thu 02:28:12 PM 37.4078 -85.3522 346° North 463 533 26,000  Level Indianapolis Center
Thu 02:29:14 PM 37.5325 -85.3958 345° North 464 534 26,000  Level Indianapolis Center
Thu 02:30:16 PM 37.6589 -85.4358 346° North 466 536 26,000  Level Indianapolis Center
Thu 02:31:18 PM 37.7861 -85.4800 345° North 470 541 26,000  Level Indianapolis Center
Thu 02:32:20 PM 37.9275 -85.5264 345° North 477 549 26,000  Level Indianapolis Center
Thu 02:33:22 PM 38.0603 -85.5464 353° North 479 551 26,000  Level Indianapolis Center
Thu 02:34:24 PM 38.1936 -85.5631 354° North 481 554 26,000  Level Indianapolis Center
Thu 02:35:26 PM 38.3231 -85.5961 349° North 476 548 26,000  Level Indianapolis Center
Thu 02:36:28 PM 38.4603 -85.5919 North 490 564 26,000  Level Indianapolis Center
Thu 02:37:30 PM 38.5956 -85.5928 360° North 488 562 26,000  Level Indianapolis Center
Thu 02:38:32 PM 38.7317 -85.6017 357° North 489 563 26,000  Level Indianapolis Center
Thu 02:39:34 PM 38.8967 -85.6036 359° North 492 566 26,000  Level Indianapolis Center
Thu 02:40:36 PM 39.0342 -85.6097 358° North 492 566 26,000  Level Indianapolis Center
Thu 02:41:38 PM 39.1683 -85.6147 358° North 484 557 26,000  Level Indianapolis Center
Thu 02:42:40 PM 39.3011 -85.6086 North 480 552 26,000  Level Indianapolis Center
Thu 02:43:42 PM 39.4342 -85.6036 North 478 550 26,000  Level Indianapolis Center
Thu 02:44:44 PM 39.5675 -85.6114 357° North 477 549 26,000 -48 Level Indianapolis Center
Thu 02:45:46 PM 39.7106 -85.6058 North 472 543 25,900  Descending Indianapolis Center
Thu 02:46:48 PM 39.8444 -85.6058 360° North 475 547 26,000 48 Climbing Indianapolis Center
Thu 02:47:50 PM 39.9733 -85.6236 354° North 467 537 26,000 -339 Level Indianapolis Center
Thu 02:48:52 PM 40.1275 -85.6378 356° North 475 547 25,300 -919 Descending Indianapolis Center
Thu 02:49:54 PM 40.2667 -85.6203 North 493 567 24,100 -696 Descending Indianapolis Center
Thu 02:50:44 PM 40.3750 -85.6328 355° North 484 557 24,000 -53 Descending Chicago Center
Thu 02:51:47 PM 40.4928 -85.6836 342° North 456 525 24,000 -48 Level Chicago Center
Thu 02:52:49 PM 40.5625 -85.8056 307° West 423 487 23,900 -435 Descending Chicago Center
Thu 02:53:51 PM 40.6361 -85.9294 308° West 426 490 23,100 -774 Descending Chicago Center
Thu 02:54:53 PM 40.7144 -86.0547 310° West 440 506 22,300 -774 Descending Chicago Center
Thu 02:55:55 PM 40.8100 -86.1958 312° West 434 499 21,500 -726 Descending Chicago Center
Thu 02:56:57 PM 40.8861 -86.3114 311° West 421 484 20,800 -581 Descending Chicago Center
Thu 02:57:59 PM 40.9608 -86.4331 309° West 424 488 20,300 -387 Descending Chicago Center
Thu 02:59:01 PM 41.0369 -86.5542 310° West 425 489 20,000 -672 Descending Chicago Center
Thu 03:00:04 PM 41.1108 -86.6789 308° West 429 494 18,900 -1,776 Descending Chicago Center
Thu 03:01:06 PM 41.2019 -86.8072 313° West 414 476 16,300 -2,274 Descending Chicago Center
Thu 03:02:08 PM 41.2711 -86.9103 312° West 382 440 14,200 -1,694 Descending Chicago Center
Thu 03:03:10 PM 41.3358 -87.0203 308° West 381 438 12,800 -1,248 Descending Chicago Center
Thu 03:04:13 PM 41.4003 -87.1206 311° West 364 419 11,600 -864 Descending Chicago Center
Thu 03:05:15 PM 41.4756 -87.2311 312° West 342 394 11,000 -290 Descending Chicago Center
Thu 03:06:17 PM 41.5375 -87.3275 311° West 346 398 11,000 -48 Level Chicago Center
Thu 03:07:19 PM 41.5964 -87.4197 311° West 333 383 10,900 -823 Descending Chicago Center
Thu 03:08:21 PM 41.6514 -87.4900 316° Northwest 286 329 9,300 -1,548 Descending Chicago Center
Thu 03:09:23 PM 41.7086 -87.5597 318° Northwest 282 325 7,700 -1,065 Descending Chicago Center
Thu 03:10:25 PM 41.7786 -87.6325 322° Northwest 268 308 7,100 -290 Descending Chicago Center
Thu 03:11:27 PM 41.8292 -87.6822 324° Northwest 234 269 7,100  Level Chicago Center
Thu 03:12:29 PM 41.8300 -87.7561 271° West 203 234 7,100 -48 Level Chicago Center
Thu 03:13:31 PM 41.8294 -87.8283 269° West 196 226 7,000 -581 Descending Chicago Center
Thu 03:14:33 PM 41.8125 -87.9058 254° West 191 220 5,900 -960 Descending Chicago Center
Thu 03:15:36 PM 41.7867 -87.9653 240° Southwest 188 216 5,000 -432 Descending Chicago Center
Thu 03:16:38 PM 41.7589 -88.0236 237° Southwest 188 216 5,000 -290 Level Chicago Center
Thu 03:17:40 PM 41.7722 -88.0822 287° West 185 213 4,400 -484 Descending Chicago Center
Thu 03:18:42 PM 41.8100 -88.0708 13° North 193 222 4,000 -387 Descending Chicago Center

Login

Don't have an account? Register now (free) for customized features, flight alerts, and more!